sensor_id;sensor_type;location;lat;lon;timestamp;P1;durP1;ratioP1;P2;durP2;ratioP2
14520;SDS011;7347;50.844;4.490;2024-01-15T08:57:29;3.30;;;0.70;;
14520;SDS011;7347;50.844;4.490;2024-01-15T08:59:56;1.23;;;0.73;;
14520;SDS011;7347;50.844;4.490;2024-01-15T09:02:23;4.60;;;1.20;;
14520;SDS011;7347;50.844;4.490;2024-01-15T09:04:50;1.80;;;0.87;;
14520;SDS011;7347;50.844;4.490;2024-01-15T09:07:17;0.80;;;0.40;;
14520;SDS011;7347;50.844;4.490;2024-01-15T09:09:44;4.20;;;0.50;;
14520;SDS011;7347;50.844;4.490;2024-01-15T09:12:11;1.00;;;0.80;;
14520;SDS011;7347;50.844;4.490;2024-01-15T09:14:42;0.60;;;0.30;;
14520;SDS011;7347;50.844;4.490;2024-01-15T09:17:09;1.47;;;0.50;;
14520;SDS011;7347;50.844;4.490;2024-01-15T09:19:36;2.10;;;0.57;;
14520;SDS011;7347;50.844;4.490;2024-01-15T09:22:04;0.77;;;0.50;;
14520;SDS011;7347;50.844;4.490;2024-01-15T09:24:31;2.03;;;0.30;;
14520;SDS011;7347;50.844;4.490;2024-01-15T09:26:57;3.80;;;0.40;;
14520;SDS011;7347;50.844;4.490;2024-01-15T09:29:25;1.23;;;0.40;;
14520;SDS011;7347;50.844;4.490;2024-01-15T09:31:53;1.60;;;0.60;;
14520;SDS011;7347;50.844;4.490;2024-01-15T09:34:20;3.87;;;0.60;;
14520;SDS011;7347;50.844;4.490;2024-01-15T09:36:47;3.90;;;0.77;;
14520;SDS011;7347;50.844;4.490;2024-01-15T09:39:14;4.10;;;0.57;;
14520;SDS011;7347;50.844;4.490;2024-01-15T09:41:41;2.90;;;0.60;;
14520;SDS011;7347;50.844;4.490;2024-01-15T09:44:09;1.73;;;0.67;;
14520;SDS011;7347;50.844;4.490;2024-01-15T09:46:37;2.57;;;0.70;;
14520;SDS011;7347;50.844;4.490;2024-01-15T09:49:07;2.00;;;0.50;;
14520;SDS011;7347;50.844;4.490;2024-01-15T09:51:34;0.80;;;0.40;;
14520;SDS011;7347;50.844;4.490;2024-01-15T09:54:02;2.33;;;1.53;;
14520;SDS011;7347;50.844;4.490;2024-01-15T09:56:30;1.07;;;0.30;;
14520;SDS011;7347;50.844;4.490;2024-01-15T09:58:57;2.00;;;0.50;;
14520;SDS011;7347;50.844;4.490;2024-01-15T10:01:24;1.40;;;0.77;;
14520;SDS011;7347;50.844;4.490;2024-01-15T10:03:52;1.90;;;0.43;;
14520;SDS011;7347;50.844;4.490;2024-01-15T10:06:22;5.43;;;0.40;;
14520;SDS011;7347;50.844;4.490;2024-01-15T10:08:50;0.97;;;0.40;;
14520;SDS011;7347;50.844;4.490;2024-01-15T10:11:17;0.63;;;0.30;;
14520;SDS011;7347;50.844;4.490;2024-01-15T10:13:44;1.67;;;0.50;;
14520;SDS011;7347;50.844;4.490;2024-01-15T10:16:12;0.60;;;0.30;;
14520;SDS011;7347;50.844;4.490;2024-01-15T10:18:39;3.23;;;0.60;;
14520;SDS011;7347;50.844;4.490;2024-01-15T10:21:06;2.73;;;0.50;;
14520;SDS011;7347;50.844;4.490;2024-01-15T10:23:35;0.90;;;0.40;;
14520;SDS011;7347;50.844;4.490;2024-01-15T10:26:02;0.40;;;0.20;;
14520;SDS011;7347;50.844;4.490;2024-01-15T10:28:29;1.20;;;0.40;;
14520;SDS011;7347;50.844;4.490;2024-01-15T10:30:57;2.80;;;0.50;;
14520;SDS011;7347;50.844;4.490;2024-01-15T10:33:25;2.70;;;0.70;;
14520;SDS011;7347;50.844;4.490;2024-01-15T10:35:53;2.77;;;0.50;;
14520;SDS011;7347;50.844;4.490;2024-01-15T10:38:20;2.20;;;0.60;;
14520;SDS011;7347;50.844;4.490;2024-01-15T10:40:49;1.77;;;0.90;;
14520;SDS011;7347;50.844;4.490;2024-01-15T10:43:18;1.53;;;0.60;;
14520;SDS011;7347;50.844;4.490;2024-01-15T10:45:45;2.30;;;0.70;;
14520;SDS011;7347;50.844;4.490;2024-01-15T10:48:13;1.83;;;0.50;;
14520;SDS011;7347;50.844;4.490;2024-01-15T10:50:40;1.20;;;0.40;;
14520;SDS011;7347;50.844;4.490;2024-01-15T10:53:07;4.20;;;0.60;;
14520;SDS011;7347;50.844;4.490;2024-01-15T10:55:35;2.80;;;0.60;;
14520;SDS011;7347;50.844;4.490;2024-01-15T10:58:14;0.83;;;0.50;;
14520;SDS011;7347;50.844;4.490;2024-01-15T11:00:42;1.40;;;0.37;;
14520;SDS011;7347;50.844;4.490;2024-01-15T11:03:09;1.63;;;0.43;;
14520;SDS011;7347;50.844;4.490;2024-01-15T11:05:37;1.00;;;0.40;;
14520;SDS011;7347;50.844;4.490;2024-01-15T11:08:05;3.23;;;0.50;;
14520;SDS011;7347;50.844;4.490;2024-01-15T11:10:39;9.83;;;0.60;;
14520;SDS011;7347;50.844;4.490;2024-01-15T11:13:15;0.83;;;0.43;;
14520;SDS011;7347;50.844;4.490;2024-01-15T11:15:54;0.60;;;0.40;;
14520;SDS011;7347;50.844;4.490;2024-01-15T11:18:26;0.80;;;0.47;;
14520;SDS011;7347;50.844;4.490;2024-01-15T11:23:53;2.37;;;0.50;;
14520;SDS011;7347;50.844;4.490;2024-01-15T11:26:29;1.87;;;0.50;;
14520;SDS011;7347;50.844;4.490;2024-01-15T11:28:58;1.73;;;0.47;;
14520;SDS011;7347;50.844;4.490;2024-01-15T11:31:27;0.83;;;0.40;;
14520;SDS011;7347;50.844;4.490;2024-01-15T11:33:55;2.13;;;0.40;;
14520;SDS011;7347;50.844;4.490;2024-01-15T11:36:28;13.23;;;0.63;;
14520;SDS011;7347;50.844;4.490;2024-01-15T11:39:41;1.00;;;0.30;;
14520;SDS011;7347;50.844;4.490;2024-01-15T11:42:12;4.73;;;0.57;;
14520;SDS011;7347;50.844;4.490;2024-01-15T11:44:41;0.97;;;0.20;;
14520;SDS011;7347;50.844;4.490;2024-01-15T11:47:10;3.40;;;0.53;;
14520;SDS011;7347;50.844;4.490;2024-01-15T11:49:48;1.80;;;1.10;;
14520;SDS011;7347;50.844;4.490;2024-01-15T11:52:30;5.87;;;0.63;;
14520;SDS011;7347;50.844;4.490;2024-01-15T11:55:00;2.83;;;0.53;;
14520;SDS011;7347;50.844;4.490;2024-01-15T11:57:40;0.40;;;0.30;;
14520;SDS011;7347;50.844;4.490;2024-01-15T12:00:10;0.47;;;0.30;;
14520;SDS011;7347;50.844;4.490;2024-01-15T12:02:39;0.47;;;0.20;;
14520;SDS011;7347;50.844;4.490;2024-01-15T12:05:07;2.00;;;0.33;;
14520;SDS011;7347;50.844;4.490;2024-01-15T12:07:34;2.17;;;0.20;;
14520;SDS011;7347;50.844;4.490;2024-01-15T12:10:01;1.50;;;0.40;;
14520;SDS011;7347;50.844;4.490;2024-01-15T12:12:44;2.27;;;0.30;;
14520;SDS011;7347;50.844;4.490;2024-01-15T12:15:21;1.77;;;0.63;;
14520;SDS011;7347;50.844;4.490;2024-01-15T12:17:48;2.17;;;0.43;;
14520;SDS011;7347;50.844;4.490;2024-01-15T12:20:15;2.10;;;0.40;;
14520;SDS011;7347;50.844;4.490;2024-01-15T12:22:43;0.50;;;0.40;;
14520;SDS011;7347;50.844;4.490;2024-01-15T12:25:11;0.80;;;0.20;;
14520;SDS011;7347;50.844;4.490;2024-01-15T12:27:37;2.63;;;0.40;;
14520;SDS011;7347;50.844;4.490;2024-01-15T12:30:05;3.80;;;0.60;;
14520;SDS011;7347;50.844;4.490;2024-01-15T12:32:35;6.63;;;1.83;;
14520;SDS011;7347;50.844;4.490;2024-01-15T12:35:02;1.27;;;0.50;;
14520;SDS011;7347;50.844;4.490;2024-01-15T12:37:30;0.93;;;0.30;;
14520;SDS011;7347;50.844;4.490;2024-01-15T12:39:58;6.87;;;0.67;;
14520;SDS011;7347;50.844;4.490;2024-01-15T12:42:25;1.07;;;0.40;;
14520;SDS011;7347;50.844;4.490;2024-01-15T12:44:55;1.57;;;0.30;;
14520;SDS011;7347;50.844;4.490;2024-01-15T12:47:22;1.07;;;0.30;;
14520;SDS011;7347;50.844;4.490;2024-01-15T12:49:52;3.33;;;0.30;;
14520;SDS011;7347;50.844;4.490;2024-01-15T12:52:20;2.13;;;0.37;;
14520;SDS011;7347;50.844;4.490;2024-01-15T12:54:47;2.87;;;0.67;;
14520;SDS011;7347;50.844;4.490;2024-01-15T12:57:14;0.50;;;0.30;;
14520;SDS011;7347;50.844;4.490;2024-01-15T12:59:41;0.90;;;0.40;;
14520;SDS011;7347;50.844;4.490;2024-01-15T13:02:09;0.70;;;0.20;;
14520;SDS011;7347;50.844;4.490;2024-01-15T13:04:36;0.70;;;0.40;;
14520;SDS011;7347;50.844;4.490;2024-01-15T13:07:05;2.93;;;0.50;;
14520;SDS011;7347;50.844;4.490;2024-01-15T13:09:32;3.80;;;0.43;;
14520;SDS011;7347;50.844;4.490;2024-01-15T13:11:59;0.83;;;0.40;;
14520;SDS011;7347;50.844;4.490;2024-01-15T13:14:27;1.17;;;0.40;;
14520;SDS011;7347;50.844;4.490;2024-01-15T13:16:54;3.00;;;0.37;;
14520;SDS011;7347;50.844;4.490;2024-01-15T13:19:22;2.67;;;0.40;;
14520;SDS011;7347;50.844;4.490;2024-01-15T13:21:48;0.60;;;0.50;;
14520;SDS011;7347;50.844;4.490;2024-01-15T13:24:17;1.57;;;0.70;;
14520;SDS011;7347;50.844;4.490;2024-01-15T13:26:44;1.20;;;0.70;;
14520;SDS011;7347;50.844;4.490;2024-01-15T13:29:12;0.77;;;0.30;;
14520;SDS011;7347;50.844;4.490;2024-01-15T13:31:39;3.43;;;0.90;;
14520;SDS011;7347;50.844;4.490;2024-01-15T13:34:06;1.03;;;0.40;;
14520;SDS011;7347;50.844;4.490;2024-01-15T13:36:34;1.23;;;0.33;;
14520;SDS011;7347;50.844;4.490;2024-01-15T13:39:03;2.33;;;0.80;;
14520;SDS011;7347;50.844;4.490;2024-01-15T13:41:35;1.77;;;0.50;;
14520;SDS011;7347;50.844;4.490;2024-01-15T13:44:02;4.70;;;0.50;;
14520;SDS011;7347;50.844;4.490;2024-01-15T13:46:29;3.10;;;0.30;;
14520;SDS011;7347;50.844;4.490;2024-01-15T13:48:56;6.57;;;0.50;;
14520;SDS011;7347;50.844;4.490;2024-01-15T13:51:23;2.23;;;0.87;;
14520;SDS011;7347;50.844;4.490;2024-01-15T13:53:50;2.93;;;0.83;;
14520;SDS011;7347;50.844;4.490;2024-01-15T13:56:18;0.30;;;0.20;;
14520;SDS011;7347;50.844;4.490;2024-01-15T13:58:46;0.53;;;0.30;;
14520;SDS011;7347;50.844;4.490;2024-01-15T14:01:14;0.27;;;0.20;;
14520;SDS011;7347;50.844;4.490;2024-01-15T14:03:42;0.20;;;0.10;;
14520;SDS011;7347;50.844;4.490;2024-01-15T14:06:09;0.20;;;0.00;;
14520;SDS011;7347;50.844;4.490;2024-01-15T14:08:36;0.30;;;0.10;;
14520;SDS011;7347;50.844;4.490;2024-01-15T14:11:03;0.70;;;0.20;;
14520;SDS011;7347;50.844;4.490;2024-01-15T14:13:31;0.30;;;0.30;;
14520;SDS011;7347;50.844;4.490;2024-01-15T14:16:00;1.23;;;0.60;;
14520;SDS011;7347;50.844;4.490;2024-01-15T14:18:27;0.77;;;0.20;;
14520;SDS011;7347;50.844;4.490;2024-01-15T14:20:54;0.40;;;0.30;;
14520;SDS011;7347;50.844;4.490;2024-01-15T14:23:20;0.63;;;0.20;;
14520;SDS011;7347;50.844;4.490;2024-01-15T14:25:48;0.70;;;0.47;;
14520;SDS011;7347;50.844;4.490;2024-01-15T14:28:15;1.00;;;0.40;;
14520;SDS011;7347;50.844;4.490;2024-01-15T14:30:41;1.30;;;0.43;;
14520;SDS011;7347;50.844;4.490;2024-01-15T14:33:10;1.23;;;0.50;;
14520;SDS011;7347;50.844;4.490;2024-01-15T14:35:36;0.70;;;0.30;;
14520;SDS011;7347;50.844;4.490;2024-01-15T14:38:04;1.47;;;0.70;;
14520;SDS011;7347;50.844;4.490;2024-01-15T14:40:30;1.43;;;0.77;;
14520;SDS011;7347;50.844;4.490;2024-01-15T14:42:57;0.90;;;0.40;;
14520;SDS011;7347;50.844;4.490;2024-01-15T14:45:24;0.60;;;0.30;;
14520;SDS011;7347;50.844;4.490;2024-01-15T14:47:52;3.03;;;0.60;;
14520;SDS011;7347;50.844;4.490;2024-01-15T14:50:20;0.53;;;0.40;;
14520;SDS011;7347;50.844;4.490;2024-01-15T14:52:48;4.00;;;0.67;;
14520;SDS011;7347;50.844;4.490;2024-01-15T14:55:15;1.60;;;0.60;;
14520;SDS011;7347;50.844;4.490;2024-01-15T14:57:42;2.37;;;0.30;;
14520;SDS011;7347;50.844;4.490;2024-01-15T15:00:09;0.60;;;0.37;;
14520;SDS011;7347;50.844;4.490;2024-01-15T15:02:38;2.73;;;0.40;;
14520;SDS011;7347;50.844;4.490;2024-01-15T15:05:05;1.13;;;0.40;;
14520;SDS011;7347;50.844;4.490;2024-01-15T15:07:34;0.73;;;0.60;;
14520;SDS011;7347;50.844;4.490;2024-01-15T15:10:02;1.10;;;0.40;;
14520;SDS011;7347;50.844;4.490;2024-01-15T15:12:30;2.80;;;0.47;;
14520;SDS011;7347;50.844;4.490;2024-01-15T15:14:57;2.03;;;0.63;;
14520;SDS011;7347;50.844;4.490;2024-01-15T15:17:24;1.00;;;0.50;;
14520;SDS011;7347;50.844;4.490;2024-01-15T15:19:51;2.53;;;0.63;;
14520;SDS011;7347;50.844;4.490;2024-01-15T15:22:18;3.03;;;0.70;;
14520;SDS011;7347;50.844;4.490;2024-01-15T15:24:47;2.10;;;0.50;;
14520;SDS011;7347;50.844;4.490;2024-01-15T15:27:14;1.90;;;0.40;;
14520;SDS011;7347;50.844;4.490;2024-01-15T15:29:40;1.77;;;0.33;;
14520;SDS011;7347;50.844;4.490;2024-01-15T15:32:07;2.57;;;0.40;;
14520;SDS011;7347;50.844;4.490;2024-01-15T15:34:34;0.80;;;0.50;;
14520;SDS011;7347;50.844;4.490;2024-01-15T15:37:01;2.30;;;0.43;;
14520;SDS011;7347;50.844;4.490;2024-01-15T15:39:28;1.33;;;0.53;;
14520;SDS011;7347;50.844;4.490;2024-01-15T15:41:57;6.13;;;0.30;;
14520;SDS011;7347;50.844;4.490;2024-01-15T15:44:24;0.67;;;0.33;;
14520;SDS011;7347;50.844;4.490;2024-01-15T15:46:51;0.30;;;0.20;;
14520;SDS011;7347;50.844;4.490;2024-01-15T15:49:18;1.10;;;0.43;;
14520;SDS011;7347;50.844;4.490;2024-01-15T15:51:45;0.67;;;0.27;;
14520;SDS011;7347;50.844;4.490;2024-01-15T15:54:12;1.60;;;0.30;;
14520;SDS011;7347;50.844;4.490;2024-01-15T15:56:39;3.60;;;0.50;;
14520;SDS011;7347;50.844;4.490;2024-01-15T15:59:08;0.60;;;0.30;;
14520;SDS011;7347;50.844;4.490;2024-01-15T16:01:35;2.20;;;0.70;;
14520;SDS011;7347;50.844;4.490;2024-01-15T16:04:02;2.00;;;0.70;;
14520;SDS011;7347;50.844;4.490;2024-01-15T16:06:29;3.13;;;0.60;;
14520;SDS011;7347;50.844;4.490;2024-01-15T16:08:56;1.87;;;0.70;;
14520;SDS011;7347;50.844;4.490;2024-01-15T16:11:23;0.40;;;0.30;;
14520;SDS011;7347;50.844;4.490;2024-01-15T16:13:50;2.37;;;0.67;;
14520;SDS011;7347;50.844;4.490;2024-01-15T16:16:18;1.00;;;0.37;;
14520;SDS011;7347;50.844;4.490;2024-01-15T16:18:45;1.70;;;0.70;;
14520;SDS011;7347;50.844;4.490;2024-01-15T16:21:12;1.20;;;0.53;;
14520;SDS011;7347;50.844;4.490;2024-01-15T16:23:39;3.20;;;0.70;;
14520;SDS011;7347;50.844;4.490;2024-01-15T16:26:06;1.73;;;0.87;;
14520;SDS011;7347;50.844;4.490;2024-01-15T16:28:33;0.97;;;0.30;;
14520;SDS011;7347;50.844;4.490;2024-01-15T16:31:00;2.83;;;0.60;;
14520;SDS011;7347;50.844;4.490;2024-01-15T16:33:28;1.23;;;0.47;;
14520;SDS011;7347;50.844;4.490;2024-01-15T16:35:55;3.20;;;0.83;;
14520;SDS011;7347;50.844;4.490;2024-01-15T16:38:22;8.57;;;0.53;;
14520;SDS011;7347;50.844;4.490;2024-01-15T16:40:50;1.83;;;0.40;;
14520;SDS011;7347;50.844;4.490;2024-01-15T16:43:17;1.60;;;0.70;;
14520;SDS011;7347;50.844;4.490;2024-01-15T16:45:43;5.70;;;0.70;;
14520;SDS011;7347;50.844;4.490;2024-01-15T16:48:10;0.80;;;0.57;;
14520;SDS011;7347;50.844;4.490;2024-01-15T16:50:38;2.40;;;0.60;;
14520;SDS011;7347;50.844;4.490;2024-01-15T16:53:05;1.13;;;0.53;;
14520;SDS011;7347;50.844;4.490;2024-01-15T16:55:33;6.33;;;0.67;;
14520;SDS011;7347;50.844;4.490;2024-01-15T16:58:00;3.63;;;1.20;;
14520;SDS011;7347;50.844;4.490;2024-01-15T17:00:27;1.03;;;0.63;;
14520;SDS011;7347;50.844;4.490;2024-01-15T17:02:54;3.33;;;0.70;;
14520;SDS011;7347;50.844;4.490;2024-01-15T17:05:21;4.47;;;0.97;;
14520;SDS011;7347;50.844;4.490;2024-01-15T17:07:50;2.17;;;0.60;;
14520;SDS011;7347;50.844;4.490;2024-01-15T17:10:17;1.27;;;0.60;;
14520;SDS011;7347;50.844;4.490;2024-01-15T17:12:43;0.57;;;0.37;;
14520;SDS011;7347;50.844;4.490;2024-01-15T17:15:12;1.90;;;0.70;;
14520;SDS011;7347;50.844;4.490;2024-01-15T17:17:39;7.93;;;0.73;;
14520;SDS011;7347;50.844;4.490;2024-01-15T17:20:06;1.27;;;0.40;;
14520;SDS011;7347;50.844;4.490;2024-01-15T17:22:35;2.00;;;0.60;;
14520;SDS011;7347;50.844;4.490;2024-01-15T17:25:05;0.90;;;0.60;;
14520;SDS011;7347;50.844;4.490;2024-01-15T17:27:32;1.20;;;0.70;;
14520;SDS011;7347;50.844;4.490;2024-01-15T17:29:59;3.93;;;0.80;;
14520;SDS011;7347;50.844;4.490;2024-01-15T17:32:26;3.80;;;0.50;;
14520;SDS011;7347;50.844;4.490;2024-01-15T17:34:53;2.40;;;0.83;;
14520;SDS011;7347;50.844;4.490;2024-01-15T17:37:20;2.50;;;1.00;;
14520;SDS011;7347;50.844;4.490;2024-01-15T17:39:47;0.90;;;0.57;;
14520;SDS011;7347;50.844;4.490;2024-01-15T17:42:15;8.63;;;1.30;;
14520;SDS011;7347;50.844;4.490;2024-01-15T17:44:42;4.80;;;1.47;;
14520;SDS011;7347;50.844;4.490;2024-01-15T17:47:09;1.73;;;0.90;;
14520;SDS011;7347;50.844;4.490;2024-01-15T17:49:36;6.90;;;0.87;;
14520;SDS011;7347;50.844;4.490;2024-01-15T17:52:03;3.33;;;1.00;;
14520;SDS011;7347;50.844;4.490;2024-01-15T17:54:31;1.63;;;0.90;;
14520;SDS011;7347;50.844;4.490;2024-01-15T17:56:57;6.97;;;2.10;;
14520;SDS011;7347;50.844;4.490;2024-01-15T17:59:26;4.73;;;1.40;;
14520;SDS011;7347;50.844;4.490;2024-01-15T18:01:53;3.10;;;1.47;;
14520;SDS011;7347;50.844;4.490;2024-01-15T18:04:20;2.20;;;1.07;;
14520;SDS011;7347;50.844;4.490;2024-01-15T18:06:47;2.53;;;1.03;;
14520;SDS011;7347;50.844;4.490;2024-01-15T18:09:14;1.53;;;1.03;;
14520;SDS011;7347;50.844;4.490;2024-01-15T18:11:42;2.00;;;1.10;;
14520;SDS011;7347;50.844;4.490;2024-01-15T18:14:09;1.87;;;1.37;;
14520;SDS011;7347;50.844;4.490;2024-01-15T18:16:38;5.60;;;1.37;;
14520;SDS011;7347;50.844;4.490;2024-01-15T18:19:05;1.87;;;1.30;;
14520;SDS011;7347;50.844;4.490;2024-01-15T18:21:32;4.40;;;2.03;;
14520;SDS011;7347;50.844;4.490;2024-01-15T18:23:59;2.77;;;1.63;;
14520;SDS011;7347;50.844;4.490;2024-01-15T18:26:26;5.80;;;1.80;;
14520;SDS011;7347;50.844;4.490;2024-01-15T18:28:53;4.43;;;1.77;;
14520;SDS011;7347;50.844;4.490;2024-01-15T18:31:20;2.07;;;1.40;;
14520;SDS011;7347;50.844;4.490;2024-01-15T18:33:48;2.43;;;1.33;;
14520;SDS011;7347;50.844;4.490;2024-01-15T18:36:15;4.00;;;1.37;;
14520;SDS011;7347;50.844;4.490;2024-01-15T18:38:42;6.73;;;1.73;;
14520;SDS011;7347;50.844;4.490;2024-01-15T18:41:09;4.30;;;1.50;;
14520;SDS011;7347;50.844;4.490;2024-01-15T18:43:45;3.13;;;1.97;;
14520;SDS011;7347;50.844;4.490;2024-01-15T18:46:12;3.57;;;1.53;;
14520;SDS011;7347;50.844;4.490;2024-01-15T18:48:39;2.10;;;1.37;;
14520;SDS011;7347;50.844;4.490;2024-01-15T18:51:07;3.63;;;1.40;;
14520;SDS011;7347;50.844;4.490;2024-01-15T18:53:34;3.13;;;1.43;;
14520;SDS011;7347;50.844;4.490;2024-01-15T18:56:01;5.57;;;1.33;;
14520;SDS011;7347;50.844;4.490;2024-01-15T18:58:28;2.77;;;1.13;;
14520;SDS011;7347;50.844;4.490;2024-01-15T19:00:56;4.57;;;1.23;;
14520;SDS011;7347;50.844;4.490;2024-01-15T19:03:23;3.30;;;1.13;;
14520;SDS011;7347;50.844;4.490;2024-01-15T19:05:49;3.50;;;1.43;;
14520;SDS011;7347;50.844;4.490;2024-01-15T19:08:18;5.67;;;1.20;;
14520;SDS011;7347;50.844;4.490;2024-01-15T19:10:44;3.70;;;1.37;;
14520;SDS011;7347;50.844;4.490;2024-01-15T19:13:11;3.87;;;1.17;;
14520;SDS011;7347;50.844;4.490;2024-01-15T19:15:38;14.00;;;1.97;;
14520;SDS011;7347;50.844;4.490;2024-01-15T19:18:05;3.73;;;1.00;;
14520;SDS011;7347;50.844;4.490;2024-01-15T19:20:32;1.97;;;1.00;;
14520;SDS011;7347;50.844;4.490;2024-01-15T19:22:59;3.53;;;1.20;;
14520;SDS011;7347;50.844;4.490;2024-01-15T19:25:28;1.37;;;0.70;;
14520;SDS011;7347;50.844;4.490;2024-01-15T19:27:54;5.30;;;1.20;;
14520;SDS011;7347;50.844;4.490;2024-01-15T19:30:21;3.77;;;1.00;;
14520;SDS011;7347;50.844;4.490;2024-01-15T19:32:48;2.63;;;1.30;;
14520;SDS011;7347;50.844;4.490;2024-01-15T19:35:15;1.27;;;0.90;;
14520;SDS011;7347;50.844;4.490;2024-01-15T19:37:42;10.43;;;1.80;;
14520;SDS011;7347;50.844;4.490;2024-01-15T19:40:09;3.20;;;1.10;;
14520;SDS011;7347;50.844;4.490;2024-01-15T19:42:38;2.53;;;1.00;;
14520;SDS011;7347;50.844;4.490;2024-01-15T19:45:06;4.30;;;1.30;;
14520;SDS011;7347;50.844;4.490;2024-01-15T19:47:33;3.00;;;1.00;;
14520;SDS011;7347;50.844;4.490;2024-01-15T19:50:00;9.03;;;2.00;;
14520;SDS011;7347;50.844;4.490;2024-01-15T19:52:27;4.93;;;1.10;;
14520;SDS011;7347;50.844;4.490;2024-01-15T19:54:54;3.97;;;1.10;;
14520;SDS011;7347;50.844;4.490;2024-01-15T19:57:21;3.20;;;1.13;;
14520;SDS011;7347;50.844;4.490;2024-01-15T19:59:50;5.30;;;1.33;;
14520;SDS011;7347;50.844;4.490;2024-01-15T20:02:18;2.73;;;1.10;;
14520;SDS011;7347;50.844;4.490;2024-01-15T20:04:45;2.57;;;0.83;;
14520;SDS011;7347;50.844;4.490;2024-01-15T20:07:12;3.90;;;1.40;;
14520;SDS011;7347;50.844;4.490;2024-01-15T20:09:39;2.00;;;1.00;;
14520;SDS011;7347;50.844;4.490;2024-01-15T20:12:06;6.70;;;1.23;;
14520;SDS011;7347;50.844;4.490;2024-01-15T20:14:33;6.70;;;0.90;;
14520;SDS011;7347;50.844;4.490;2024-01-15T20:17:01;2.63;;;1.10;;
14520;SDS011;7347;50.844;4.490;2024-01-15T20:19:29;3.47;;;1.17;;
14520;SDS011;7347;50.844;4.490;2024-01-15T20:21:56;2.57;;;1.13;;
14520;SDS011;7347;50.844;4.490;2024-01-15T20:24:23;2.67;;;1.10;;
14520;SDS011;7347;50.844;4.490;2024-01-15T20:26:51;3.00;;;1.00;;
14520;SDS011;7347;50.844;4.490;2024-01-15T20:29:18;2.57;;;1.10;;
14520;SDS011;7347;50.844;4.490;2024-01-15T20:31:45;2.50;;;1.00;;
14520;SDS011;7347;50.844;4.490;2024-01-15T20:34:13;6.73;;;1.70;;
14520;SDS011;7347;50.844;4.490;2024-01-15T20:36:40;3.17;;;1.10;;
14520;SDS011;7347;50.844;4.490;2024-01-15T20:39:07;1.70;;;1.03;;
14520;SDS011;7347;50.844;4.490;2024-01-15T20:41:34;2.87;;;1.20;;
14520;SDS011;7347;50.844;4.490;2024-01-15T20:44:01;3.60;;;1.10;;
14520;SDS011;7347;50.844;4.490;2024-01-15T20:46:28;3.17;;;0.77;;
14520;SDS011;7347;50.844;4.490;2024-01-15T20:48:55;3.67;;;1.30;;
14520;SDS011;7347;50.844;4.490;2024-01-15T20:51:23;2.97;;;0.83;;
14520;SDS011;7347;50.844;4.490;2024-01-15T20:53:50;2.37;;;1.40;;
14520;SDS011;7347;50.844;4.490;2024-01-15T20:56:18;3.70;;;1.40;;
14520;SDS011;7347;50.844;4.490;2024-01-15T20:58:45;4.30;;;1.40;;
14520;SDS011;7347;50.844;4.490;2024-01-15T21:01:12;6.00;;;1.13;;
14520;SDS011;7347;50.844;4.490;2024-01-15T21:03:39;3.53;;;0.97;;
14520;SDS011;7347;50.844;4.490;2024-01-15T21:06:06;4.00;;;1.30;;
14520;SDS011;7347;50.844;4.490;2024-01-15T21:08:34;3.37;;;1.40;;
14520;SDS011;7347;50.844;4.490;2024-01-15T21:11:02;5.03;;;0.93;;
14520;SDS011;7347;50.844;4.490;2024-01-15T21:13:29;1.47;;;1.00;;
14520;SDS011;7347;50.844;4.490;2024-01-15T21:15:58;2.00;;;1.07;;
14520;SDS011;7347;50.844;4.490;2024-01-15T21:18:24;5.13;;;1.43;;
14520;SDS011;7347;50.844;4.490;2024-01-15T21:20:51;4.17;;;0.97;;
14520;SDS011;7347;50.844;4.490;2024-01-15T21:23:19;3.33;;;0.97;;
14520;SDS011;7347;50.844;4.490;2024-01-15T21:25:47;7.40;;;2.83;;
14520;SDS011;7347;50.844;4.490;2024-01-15T21:28:14;2.10;;;1.00;;
14520;SDS011;7347;50.844;4.490;2024-01-15T21:30:42;2.10;;;1.00;;
14520;SDS011;7347;50.844;4.490;2024-01-15T21:33:11;10.17;;;1.20;;
14520;SDS011;7347;50.844;4.490;2024-01-15T21:35:38;4.77;;;3.00;;
14520;SDS011;7347;50.844;4.490;2024-01-15T21:38:05;1.57;;;0.97;;
14520;SDS011;7347;50.844;4.490;2024-01-15T21:40:32;1.33;;;0.87;;
14520;SDS011;7347;50.844;4.490;2024-01-15T21:43:00;1.70;;;0.83;;
14520;SDS011;7347;50.844;4.490;2024-01-15T21:45:27;1.87;;;1.00;;
14520;SDS011;7347;50.844;4.490;2024-01-15T21:47:54;4.53;;;0.90;;
14520;SDS011;7347;50.844;4.490;2024-01-15T21:50:21;1.30;;;0.90;;
14520;SDS011;7347;50.844;4.490;2024-01-15T21:52:48;5.17;;;1.20;;
14520;SDS011;7347;50.844;4.490;2024-01-15T21:55:15;3.97;;;1.03;;
14520;SDS011;7347;50.844;4.490;2024-01-15T21:57:43;3.90;;;1.00;;
14520;SDS011;7347;50.844;4.490;2024-01-15T22:00:12;4.93;;;1.00;;
14520;SDS011;7347;50.844;4.490;2024-01-15T22:02:40;6.30;;;0.83;;
14520;SDS011;7347;50.844;4.490;2024-01-15T22:05:09;4.13;;;0.87;;
14520;SDS011;7347;50.844;4.490;2024-01-15T22:07:39;3.93;;;1.20;;
14520;SDS011;7347;50.844;4.490;2024-01-15T22:10:07;2.13;;;0.80;;
14520;SDS011;7347;50.844;4.490;2024-01-15T22:12:34;1.93;;;0.80;;
14520;SDS011;7347;50.844;4.490;2024-01-15T22:15:01;12.83;;;1.13;;
14520;SDS011;7347;50.844;4.490;2024-01-15T22:17:29;3.87;;;1.00;;
14520;SDS011;7347;50.844;4.490;2024-01-15T22:19:56;3.23;;;0.80;;
14520;SDS011;7347;50.844;4.490;2024-01-15T22:22:23;1.83;;;0.90;;
14520;SDS011;7347;50.844;4.490;2024-01-15T22:24:50;2.40;;;1.07;;
14520;SDS011;7347;50.844;4.490;2024-01-15T22:27:17;6.77;;;1.47;;
14520;SDS011;7347;50.844;4.490;2024-01-15T22:29:44;1.37;;;0.90;;
14520;SDS011;7347;50.844;4.490;2024-01-15T22:32:12;2.03;;;1.23;;
14520;SDS011;7347;50.844;4.490;2024-01-15T22:34:40;2.47;;;0.97;;
